sensor_id;sensor_type;location;lat;lon;timestamp;pressure;altitude;pressure_sealevel;temperature;humidity
56182;BME280;51963;46.052;14.544;2023-04-26T00:01:33;97783.59;;;5.44;100.00
56182;BME280;51963;46.052;14.544;2023-04-26T00:04:02;97802.09;;;5.59;100.00
56182;BME280;51963;46.052;14.544;2023-04-26T00:06:27;97793.19;;;5.68;100.00
56182;BME280;51963;46.052;14.544;2023-04-26T00:08:53;97801.81;;;5.46;100.00
56182;BME280;51963;46.052;14.544;2023-04-26T00:11:19;97792.63;;;5.50;100.00
56182;BME280;51963;46.052;14.544;2023-04-26T00:13:45;97808.16;;;5.51;100.00
56182;BME280;51963;46.052;14.544;2023-04-26T00:16:12;97807.41;;;5.34;100.00
56182;BME280;51963;46.052;14.544;2023-04-26T00:18:38;97804.13;;;5.24;100.00
56182;BME280;51963;46.052;14.544;2023-04-26T00:21:04;97801.59;;;5.55;100.00
56182;BME280;51963;46.052;14.544;2023-04-26T00:23:30;97805.25;;;5.38;100.00
56182;BME280;51963;46.052;14.544;2023-04-26T00:25:56;97803.78;;;5.43;100.00
56182;BME280;51963;46.052;14.544;2023-04-26T00:28:22;97810.66;;;5.45;100.00
56182;BME280;51963;46.052;14.544;2023-04-26T00:30:48;97811.16;;;5.40;100.00
56182;BME280;51963;46.052;14.544;2023-04-26T00:33:18;97808.69;;;5.47;100.00
56182;BME280;51963;46.052;14.544;2023-04-26T00:35:44;97814.94;;;5.37;100.00
56182;BME280;51963;46.052;14.544;2023-04-26T00:38:11;97816.56;;;5.22;100.00
56182;BME280;51963;46.052;14.544;2023-04-26T00:40:37;97816.44;;;5.23;100.00
56182;BME280;51963;46.052;14.544;2023-04-26T00:43:02;97822.34;;;5.09;100.00
56182;BME280;51963;46.052;14.544;2023-04-26T00:45:29;97817.25;;;4.99;100.00
56182;BME280;51963;46.052;14.544;2023-04-26T00:47:59;97815.59;;;5.23;100.00
56182;BME280;51963;46.052;14.544;2023-04-26T00:50:26;97829.69;;;5.13;100.00
56182;BME280;51963;46.052;14.544;2023-04-26T00:52:51;97839.06;;;4.99;100.00
56182;BME280;51963;46.052;14.544;2023-04-26T00:55:20;97811.06;;;4.75;100.00
56182;BME280;51963;46.052;14.544;2023-04-26T00:57:47;97846.41;;;4.96;100.00
56182;BME280;51963;46.052;14.544;2023-04-26T01:00:13;97842.66;;;4.98;100.00
56182;BME280;51963;46.052;14.544;2023-04-26T01:02:41;97844.31;;;4.91;100.00
56182;BME280;51963;46.052;14.544;2023-04-26T01:05:07;97848.38;;;4.94;100.00
56182;BME280;51963;46.052;14.544;2023-04-26T01:07:35;97840.84;;;4.91;100.00
56182;BME280;51963;46.052;14.544;2023-04-26T01:10:02;97855.25;;;4.87;100.00
56182;BME280;51963;46.052;14.544;2023-04-26T01:12:30;97846.41;;;4.71;100.00
56182;BME280;51963;46.052;14.544;2023-04-26T01:15:00;97848.22;;;4.62;100.00
56182;BME280;51963;46.052;14.544;2023-04-26T01:17:27;97862.63;;;4.58;100.00
56182;BME280;51963;46.052;14.544;2023-04-26T01:19:55;97867.69;;;4.68;100.00
56182;BME280;51963;46.052;14.544;2023-04-26T01:22:21;97866.72;;;4.69;100.00
56182;BME280;51963;46.052;14.544;2023-04-26T01:24:49;97870.97;;;4.70;100.00
56182;BME280;51963;46.052;14.544;2023-04-26T01:27:16;97859.69;;;4.69;100.00
56182;BME280;51963;46.052;14.544;2023-04-26T01:29:42;97863.75;;;4.64;100.00
56182;BME280;51963;46.052;14.544;2023-04-26T01:32:10;97866.56;;;4.70;100.00
56182;BME280;51963;46.052;14.544;2023-04-26T01:34:36;97869.19;;;4.79;100.00
56182;BME280;51963;46.052;14.544;2023-04-26T01:37:02;97836.91;;;4.53;100.00
56182;BME280;51963;46.052;14.544;2023-04-26T01:39:28;97869.66;;;4.66;100.00
56182;BME280;51963;46.052;14.544;2023-04-26T01:41:56;97864.09;;;4.69;100.00
56182;BME280;51963;46.052;14.544;2023-04-26T01:44:22;97859.19;;;4.74;100.00
56182;BME280;51963;46.052;14.544;2023-04-26T01:46:51;97874.53;;;4.52;100.00
56182;BME280;51963;46.052;14.544;2023-04-26T01:49:17;97876.03;;;4.63;100.00
56182;BME280;51963;46.052;14.544;2023-04-26T01:51:42;97881.28;;;4.72;100.00
56182;BME280;51963;46.052;14.544;2023-04-26T01:54:08;97868.81;;;4.49;100.00
56182;BME280;51963;46.052;14.544;2023-04-26T01:56:34;97878.78;;;4.45;100.00
56182;BME280;51963;46.052;14.544;2023-04-26T01:59:00;97884.50;;;4.32;100.00
56182;BME280;51963;46.052;14.544;2023-04-26T02:01:26;97883.03;;;4.38;100.00
56182;BME280;51963;46.052;14.544;2023-04-26T02:03:52;97884.66;;;4.39;100.00
56182;BME280;51963;46.052;14.544;2023-04-26T02:06:19;97889.88;;;4.39;100.00
56182;BME280;51963;46.052;14.544;2023-04-26T02:08:50;97895.59;;;4.26;100.00
56182;BME280;51963;46.052;14.544;2023-04-26T02:11:16;97894.09;;;4.23;100.00
56182;BME280;51963;46.052;14.544;2023-04-26T02:13:42;97907.19;;;4.23;100.00
56182;BME280;51963;46.052;14.544;2023-04-26T02:16:07;97907.69;;;4.27;100.00
56182;BME280;51963;46.052;14.544;2023-04-26T02:18:37;97899.34;;;4.23;100.00
56182;BME280;51963;46.052;14.544;2023-04-26T02:21:07;97902.16;;;4.30;100.00
56182;BME280;51963;46.052;14.544;2023-04-26T02:23:35;97901.94;;;4.23;100.00
56182;BME280;51963;46.052;14.544;2023-04-26T02:26:04;97896.22;;;4.20;100.00
56182;BME280;51963;46.052;14.544;2023-04-26T02:28:29;97905.16;;;4.09;100.00
56182;BME280;51963;46.052;14.544;2023-04-26T02:30:56;97902.69;;;3.99;100.00
56182;BME280;51963;46.052;14.544;2023-04-26T02:33:26;97916.66;;;4.16;100.00
56182;BME280;51963;46.052;14.544;2023-04-26T02:35:51;97920.59;;;4.20;100.00
56182;BME280;51963;46.052;14.544;2023-04-26T02:38:18;97916.69;;;4.24;100.00
56182;BME280;51963;46.052;14.544;2023-04-26T02:40:46;97916.97;;;4.13;100.00
56182;BME280;51963;46.052;14.544;2023-04-26T02:43:14;97917.91;;;4.04;100.00
56182;BME280;51963;46.052;14.544;2023-04-26T02:45:41;97916.03;;;3.88;100.00
56182;BME280;51963;46.052;14.544;2023-04-26T02:48:09;97917.13;;;3.77;100.00
56182;BME280;51963;46.052;14.544;2023-04-26T02:50:36;97924.69;;;3.88;100.00
56182;BME280;51963;46.052;14.544;2023-04-26T02:53:02;97921.72;;;3.83;100.00
56182;BME280;51963;46.052;14.544;2023-04-26T02:55:28;97925.94;;;3.76;100.00
56182;BME280;51963;46.052;14.544;2023-04-26T02:57:54;97922.00;;;3.72;100.00
56182;BME280;51963;46.052;14.544;2023-04-26T03:00:20;97927.97;;;3.90;100.00
56182;BME280;51963;46.052;14.544;2023-04-26T03:02:46;97923.00;;;3.79;100.00
56182;BME280;51963;46.052;14.544;2023-04-26T03:05:12;97927.75;;;3.75;100.00
56182;BME280;51963;46.052;14.544;2023-04-26T03:07:38;97918.81;;;3.86;100.00
56182;BME280;51963;46.052;14.544;2023-04-26T03:10:04;97928.31;;;3.95;100.00
56182;BME280;51963;46.052;14.544;2023-04-26T03:12:31;97925.97;;;3.84;100.00
56182;BME280;51963;46.052;14.544;2023-04-26T03:15:03;97933.22;;;3.90;100.00
56182;BME280;51963;46.052;14.544;2023-04-26T03:17:30;97901.97;;;3.54;100.00
56182;BME280;51963;46.052;14.544;2023-04-26T03:19:57;97934.34;;;3.61;100.00
56182;BME280;51963;46.052;14.544;2023-04-26T03:22:26;97932.41;;;3.63;100.00
56182;BME280;51963;46.052;14.544;2023-04-26T03:24:52;97935.31;;;3.60;100.00
56182;BME280;51963;46.052;14.544;2023-04-26T03:27:18;97941.28;;;3.71;100.00
56182;BME280;51963;46.052;14.544;2023-04-26T03:29:44;97939.38;;;3.81;100.00
56182;BME280;51963;46.052;14.544;2023-04-26T03:32:10;97945.44;;;3.81;100.00
56182;BME280;51963;46.052;14.544;2023-04-26T03:34:38;97938.31;;;3.65;100.00
56182;BME280;51963;46.052;14.544;2023-04-26T03:37:04;97946.19;;;3.74;100.00
56182;BME280;51963;46.052;14.544;2023-04-26T03:39:35;97944.94;;;3.86;100.00
56182;BME280;51963;46.052;14.544;2023-04-26T03:42:01;97948.28;;;3.96;100.00
56182;BME280;51963;46.052;14.544;2023-04-26T03:44:28;97955.41;;;3.86;100.00
56182;BME280;51963;46.052;14.544;2023-04-26T03:46:53;97960.59;;;3.78;100.00
56182;BME280;51963;46.052;14.544;2023-04-26T03:49:21;97958.97;;;3.77;100.00
56182;BME280;51963;46.052;14.544;2023-04-26T03:51:47;97974.41;;;3.62;100.00
56182;BME280;51963;46.052;14.544;2023-04-26T03:54:14;97966.34;;;3.55;100.00
56182;BME280;51963;46.052;14.544;2023-04-26T03:56:40;97973.44;;;3.63;100.00
56182;BME280;51963;46.052;14.544;2023-04-26T03:59:06;97976.78;;;3.55;100.00
56182;BME280;51963;46.052;14.544;2023-04-26T04:01:34;97980.31;;;3.46;100.00
56182;BME280;51963;46.052;14.544;2023-04-26T04:04:01;97975.31;;;3.52;100.00
56182;BME280;51963;46.052;14.544;2023-04-26T04:06:28;97981.72;;;3.58;100.00
56182;BME280;51963;46.052;14.544;2023-04-26T04:08:56;97949.63;;;3.48;100.00
56182;BME280;51963;46.052;14.544;2023-04-26T04:11:22;97985.34;;;3.65;100.00
56182;BME280;51963;46.052;14.544;2023-04-26T04:13:49;97987.25;;;3.55;100.00
56182;BME280;51963;46.052;14.544;2023-04-26T04:16:18;97994.84;;;3.66;100.00
56182;BME280;51963;46.052;14.544;2023-04-26T04:18:43;97996.44;;;3.59;100.00
56182;BME280;51963;46.052;14.544;2023-04-26T04:21:16;97989.66;;;3.48;100.00
56182;BME280;51963;46.052;14.544;2023-04-26T04:23:42;98000.53;;;3.62;100.00
56182;BME280;51963;46.052;14.544;2023-04-26T04:26:10;98017.41;;;3.67;100.00
56182;BME280;51963;46.052;14.544;2023-04-26T04:28:43;98029.00;;;3.91;100.00
56182;BME280;51963;46.052;14.544;2023-04-26T04:31:12;98035.25;;;3.99;100.00
56182;BME280;51963;46.052;14.544;2023-04-26T04:33:41;98027.47;;;3.80;100.00
56182;BME280;51963;46.052;14.544;2023-04-26T04:36:08;98037.78;;;3.82;100.00
56182;BME280;51963;46.052;14.544;2023-04-26T04:38:34;98037.16;;;3.88;100.00
56182;BME280;51963;46.052;14.544;2023-04-26T04:41:03;98028.81;;;4.11;100.00
56182;BME280;51963;46.052;14.544;2023-04-26T04:43:28;98040.03;;;4.30;100.00
56182;BME280;51963;46.052;14.544;2023-04-26T04:45:54;98044.59;;;4.28;100.00
56182;BME280;51963;46.052;14.544;2023-04-26T04:48:20;98041.78;;;4.21;100.00
56182;BME280;51963;46.052;14.544;2023-04-26T04:50:48;98028.44;;;4.06;100.00
56182;BME280;51963;46.052;14.544;2023-04-26T04:53:14;98030.34;;;3.95;100.00
56182;BME280;51963;46.052;14.544;2023-04-26T04:55:43;98026.34;;;3.83;100.00
56182;BME280;51963;46.052;14.544;2023-04-26T04:58:11;98021.72;;;3.77;100.00
56182;BME280;51963;46.052;14.544;2023-04-26T05:00:39;98031.00;;;3.71;100.00
56182;BME280;51963;46.052;14.544;2023-04-26T05:03:15;98030.16;;;3.71;100.00
56182;BME280;51963;46.052;14.544;2023-04-26T05:05:41;98029.38;;;3.70;100.00
56182;BME280;51963;46.052;14.544;2023-04-26T05:08:07;98036.06;;;3.73;100.00
56182;BME280;51963;46.052;14.544;2023-04-26T05:10:35;98040.69;;;3.79;100.00
56182;BME280;51963;46.052;14.544;2023-04-26T05:13:01;98036.19;;;3.89;100.00
56182;BME280;51963;46.052;14.544;2023-04-26T05:15:30;98031.69;;;4.00;100.00
56182;BME280;51963;46.052;14.544;2023-04-26T05:17:56;98044.41;;;4.21;100.00
56182;BME280;51963;46.052;14.544;2023-04-26T05:20:29;98034.69;;;4.13;100.00
56182;BME280;51963;46.052;14.544;2023-04-26T05:22:56;98060.34;;;4.36;100.00
56182;BME280;51963;46.052;14.544;2023-04-26T05:25:24;98050.56;;;4.46;100.00
56182;BME280;51963;46.052;14.544;2023-04-26T05:27:57;98057.81;;;4.52;100.00
56182;BME280;51963;46.052;14.544;2023-04-26T05:30:37;98063.53;;;4.91;100.00
56182;BME280;51963;46.052;14.544;2023-04-26T05:33:18;98060.25;;;4.97;100.00
56182;BME280;51963;46.052;14.544;2023-04-26T05:35:47;98064.38;;;4.99;100.00
56182;BME280;51963;46.052;14.544;2023-04-26T05:38:17;98053.69;;;4.93;100.00
56182;BME280;51963;46.052;14.544;2023-04-26T05:40:43;98062.22;;;4.95;100.00
56182;BME280;51963;46.052;14.544;2023-04-26T05:43:09;98063.41;;;5.01;100.00
56182;BME280;51963;46.052;14.544;2023-04-26T05:45:37;98067.84;;;5.17;100.00
56182;BME280;51963;46.052;14.544;2023-04-26T05:48:03;98054.72;;;5.08;100.00
56182;BME280;51963;46.052;14.544;2023-04-26T05:50:28;98077.91;;;5.46;100.00
56182;BME280;51963;46.052;14.544;2023-04-26T05:52:57;98067.75;;;5.51;100.00
56182;BME280;51963;46.052;14.544;2023-04-26T05:55:23;98087.94;;;5.67;100.00
56182;BME280;51963;46.052;14.544;2023-04-26T05:57:49;98088.28;;;5.81;100.00
56182;BME280;51963;46.052;14.544;2023-04-26T06:00:16;98084.50;;;5.83;100.00
56182;BME280;51963;46.052;14.544;2023-04-26T06:02:46;98082.84;;;5.82;100.00
56182;BME280;51963;46.052;14.544;2023-04-26T06:05:16;98087.63;;;5.87;100.00
56182;BME280;51963;46.052;14.544;2023-04-26T06:07:42;98082.38;;;5.87;100.00
56182;BME280;51963;46.052;14.544;2023-04-26T06:10:14;98083.69;;;5.91;100.00
56182;BME280;51963;46.052;14.544;2023-04-26T06:12:40;98090.06;;;5.88;100.00
56182;BME280;51963;46.052;14.544;2023-04-26T06:15:08;98083.34;;;5.94;100.00
56182;BME280;51963;46.052;14.544;2023-04-26T06:17:37;98080.09;;;6.00;100.00
56182;BME280;51963;46.052;14.544;2023-04-26T06:20:03;98072.88;;;6.19;100.00
56182;BME280;51963;46.052;14.544;2023-04-26T06:22:37;98078.44;;;6.24;100.00
56182;BME280;51963;46.052;14.544;2023-04-26T06:25:04;98064.81;;;6.12;100.00
56182;BME280;51963;46.052;14.544;2023-04-26T06:27:33;98077.06;;;6.45;100.00
56182;BME280;51963;46.052;14.544;2023-04-26T06:29:58;98070.19;;;6.36;100.00
56182;BME280;51963;46.052;14.544;2023-04-26T06:32:25;98071.47;;;6.48;100.00
56182;BME280;51963;46.052;14.544;2023-04-26T06:34:52;98074.06;;;6.65;100.00
56182;BME280;51963;46.052;14.544;2023-04-26T06:37:19;98082.88;;;6.80;100.00
56182;BME280;51963;46.052;14.544;2023-04-26T06:39:46;98082.94;;;6.95;100.00
56182;BME280;51963;46.052;14.544;2023-04-26T06:42:15;98059.81;;;6.90;100.00
56182;BME280;51963;46.052;14.544;2023-04-26T06:45:13;98082.22;;;7.10;100.00
56182;BME280;51963;46.052;14.544;2023-04-26T06:47:39;98082.22;;;7.10;100.00
56182;BME280;51963;46.052;14.544;2023-04-26T06:50:06;98075.97;;;7.11;100.00
56182;BME280;51963;46.052;14.544;2023-04-26T06:52:35;98086.25;;;7.29;100.00
56182;BME280;51963;46.052;14.544;2023-04-26T06:55:01;98078.31;;;7.37;100.00
56182;BME280;51963;46.052;14.544;2023-04-26T06:57:31;98076.25;;;7.47;100.00
56182;BME280;51963;46.052;14.544;2023-04-26T06:59:57;98079.72;;;7.71;100.00
56182;BME280;51963;46.052;14.544;2023-04-26T07:02:25;98073.09;;;7.75;100.00
56182;BME280;51963;46.052;14.544;2023-04-26T07:04:51;98078.41;;;7.90;100.00
56182;BME280;51963;46.052;14.544;2023-04-26T07:07:17;98080.94;;;7.84;100.00
56182;BME280;51963;46.052;14.544;2023-04-26T07:09:43;98075.81;;;8.05;100.00
56182;BME280;51963;46.052;14.544;2023-04-26T07:12:11;98078.41;;;8.44;100.00
56182;BME280;51963;46.052;14.544;2023-04-26T07:14:37;98066.34;;;8.64;100.00
56182;BME280;51963;46.052;14.544;2023-04-26T07:17:07;98062.06;;;8.63;100.00
56182;BME280;51963;46.052;14.544;2023-04-26T07:19:33;98067.53;;;8.77;100.00
56182;BME280;51963;46.052;14.544;2023-04-26T07:21:59;98072.22;;;8.97;100.00
56182;BME280;51963;46.052;14.544;2023-04-26T07:24:25;98065.63;;;9.22;100.00
56182;BME280;51963;46.052;14.544;2023-04-26T07:26:51;98050.56;;;9.60;100.00
56182;BME280;51963;46.052;14.544;2023-04-26T07:29:17;98060.28;;;10.03;100.00
56182;BME280;51963;46.052;14.544;2023-04-26T07:31:45;98064.41;;;10.40;100.00
56182;BME280;51963;46.052;14.544;2023-04-26T07:34:11;98062.31;;;10.64;100.00
56182;BME280;51963;46.052;14.544;2023-04-26T07:36:37;98066.75;;;10.99;100.00
56182;BME280;51963;46.052;14.544;2023-04-26T07:39:03;98062.56;;;11.32;100.00
56182;BME280;51963;46.052;14.544;2023-04-26T07:41:33;98057.53;;;11.50;100.00
56182;BME280;51963;46.052;14.544;2023-04-26T07:44:00;98059.22;;;12.05;94.39
56182;BME280;51963;46.052;14.544;2023-04-26T07:46:26;98061.81;;;12.45;90.35
56182;BME280;51963;46.052;14.544;2023-04-26T07:48:51;98062.06;;;12.96;87.03
56182;BME280;51963;46.052;14.544;2023-04-26T07:51:17;98053.94;;;12.84;88.12
56182;BME280;51963;46.052;14.544;2023-04-26T07:53:43;98063.16;;;13.20;85.72
56182;BME280;51963;46.052;14.544;2023-04-26T07:56:15;98054.28;;;13.01;85.21
56182;BME280;51963;46.052;14.544;2023-04-26T07:58:41;98046.78;;;13.30;83.64
56182;BME280;51963;46.052;14.544;2023-04-26T08:01:08;98064.94;;;13.33;85.44
56182;BME280;51963;46.052;14.544;2023-04-26T08:03:36;98059.41;;;13.74;82.69
56182;BME280;51963;46.052;14.544;2023-04-26T08:06:02;98058.97;;;14.02;81.63
56182;BME280;51963;46.052;14.544;2023-04-26T08:08:27;98057.34;;;14.64;78.89
56182;BME280;51963;46.052;14.544;2023-04-26T08:10:54;98067.09;;;14.33;76.97
56182;BME280;51963;46.052;14.544;2023-04-26T08:13:20;98057.47;;;14.76;74.54
56182;BME280;51963;46.052;14.544;2023-04-26T08:15:46;98060.22;;;15.18;71.82
56182;BME280;51963;46.052;14.544;2023-04-26T08:18:15;98067.78;;;16.18;63.19
56182;BME280;51963;46.052;14.544;2023-04-26T08:20:40;98057.88;;;15.10;65.77
56182;BME280;51963;46.052;14.544;2023-04-26T08:23:08;98067.34;;;15.67;62.53
56182;BME280;51963;46.052;14.544;2023-04-26T08:25:34;98053.16;;;15.54;61.43
56182;BME280;51963;46.052;14.544;2023-04-26T08:28:00;98049.94;;;16.07;66.15
56182;BME280;51963;46.052;14.544;2023-04-26T08:30:26;98057.41;;;16.81;63.56
56182;BME280;51963;46.052;14.544;2023-04-26T08:32:52;98058.19;;;16.94;60.93
56182;BME280;51963;46.052;14.544;2023-04-26T08:35:18;98057.84;;;17.31;55.50
56182;BME280;51963;46.052;14.544;2023-04-26T08:37:43;98055.28;;;17.07;54.86
56182;BME280;51963;46.052;14.544;2023-04-26T08:40:09;98055.69;;;17.16;52.22
56182;BME280;51963;46.052;14.544;2023-04-26T08:42:40;98065.16;;;16.95;49.59
56182;BME280;51963;46.052;14.544;2023-04-26T08:45:07;98046.78;;;17.10;48.45
56182;BME280;51963;46.052;14.544;2023-04-26T08:50:10;98069.59;;;16.77;47.54
56182;BME280;51963;46.052;14.544;2023-04-26T08:52:37;98063.53;;;16.94;50.12
56182;BME280;51963;46.052;14.544;2023-04-26T08:55:06;98042.19;;;17.86;44.85
56182;BME280;51963;46.052;14.544;2023-04-26T08:57:38;98059.94;;;18.26;44.26
56182;BME280;51963;46.052;14.544;2023-04-26T09:00:05;98071.63;;;18.20;42.12
56182;BME280;51963;46.052;14.544;2023-04-26T09:02:39;98069.47;;;18.56;43.21
56182;BME280;51963;46.052;14.544;2023-04-26T09:05:06;98063.88;;;18.58;41.29
56182;BME280;51963;46.052;14.544;2023-04-26T09:07:38;98073.72;;;18.74;44.16
56182;BME280;51963;46.052;14.544;2023-04-26T09:10:09;98058.84;;;19.06;40.17
56182;BME280;51963;46.052;14.544;2023-04-26T09:12:34;98064.63;;;18.75;42.48
56182;BME280;51963;46.052;14.544;2023-04-26T09:15:01;98053.31;;;19.13;44.18
56182;BME280;51963;46.052;14.544;2023-04-26T09:17:32;98048.88;;;18.79;41.95
56182;BME280;51963;46.052;14.544;2023-04-26T09:20:16;98045.41;;;19.01;39.10
56182;BME280;51963;46.052;14.544;2023-04-26T09:22:42;98054.78;;;19.86;39.80
56182;BME280;51963;46.052;14.544;2023-04-26T09:25:09;98047.63;;;18.65;39.79
56182;BME280;51963;46.052;14.544;2023-04-26T09:27:37;98036.28;;;19.24;38.03
56182;BME280;51963;46.052;14.544;2023-04-26T09:30:12;98040.03;;;19.01;36.13
56182;BME280;51963;46.052;14.544;2023-04-26T09:33:00;98042.38;;;18.75;37.99
56182;BME280;51963;46.052;14.544;2023-04-26T09:35:36;98036.63;;;18.61;37.55
56182;BME280;51963;46.052;14.544;2023-04-26T09:43:35;98022.81;;;19.46;38.52
56182;BME280;51963;46.052;14.544;2023-04-26T09:46:07;98032.47;;;19.47;37.61
56182;BME280;51963;46.052;14.544;2023-04-26T09:48:35;98022.81;;;20.60;35.22
56182;BME280;51963;46.052;14.544;2023-04-26T09:51:13;98019.78;;;20.46;34.05
56182;BME280;51963;46.052;14.544;2023-04-26T09:53:45;98021.19;;;20.11;35.41
56182;BME280;51963;46.052;14.544;2023-04-26T09:56:17;98016.63;;;20.64;34.00
56182;BME280;51963;46.052;14.544;2023-04-26T10:01:18;98013.81;;;19.90;34.90
56182;BME280;51963;46.052;14.544;2023-04-26T10:03:45;98018.97;;;20.02;36.42
56182;BME280;51963;46.052;14.544;2023-04-26T10:06:15;98015.47;;;20.45;33.10
56182;BME280;51963;46.052;14.544;2023-04-26T10:08:41;98013.84;;;19.96;34.54
56182;BME280;51963;46.052;14.544;2023-04-26T10:11:07;98011.31;;;20.75;36.40
56182;BME280;51963;46.052;14.544;2023-04-26T10:13:38;98017.94;;;21.25;31.67
56182;BME280;51963;46.052;14.544;2023-04-26T10:16:04;98009.78;;;20.94;31.27
56182;BME280;51963;46.052;14.544;2023-04-26T10:18:31;98008.63;;;20.16;33.75
56182;BME280;51963;46.052;14.544;2023-04-26T10:21:03;97969.56;;;21.20;32.60
56182;BME280;51963;46.052;14.544;2023-04-26T10:23:31;98004.97;;;22.41;29.86
56182;BME280;51963;46.052;14.544;2023-04-26T10:25:57;97998.94;;;22.76;30.08
56182;BME280;51963;46.052;14.544;2023-04-26T10:31:05;97998.88;;;21.84;30.54
56182;BME280;51963;46.052;14.544;2023-04-26T10:33:34;97984.34;;;22.82;29.16
56182;BME280;51963;46.052;14.544;2023-04-26T10:38:28;97996.25;;;24.93;27.88
56182;BME280;51963;46.052;14.544;2023-04-26T10:40:54;97987.88;;;23.22;27.42
56182;BME280;51963;46.052;14.544;2023-04-26T10:43:28;97990.50;;;24.31;27.55
56182;BME280;51963;46.052;14.544;2023-04-26T10:45:54;97978.78;;;25.04;25.88
56182;BME280;51963;46.052;14.544;2023-04-26T10:48:30;97960.06;;;25.08;27.13
56182;BME280;51963;46.052;14.544;2023-04-26T10:56:56;97968.75;;;24.17;25.75
56182;BME280;51963;46.052;14.544;2023-04-26T11:01:32;97973.34;;;25.42;26.16
56182;BME280;51963;46.052;14.544;2023-04-26T11:06:24;97975.03;;;25.38;24.75
56182;BME280;51963;46.052;14.544;2023-04-26T11:08:52;97963.97;;;22.65;27.47
56182;BME280;51963;46.052;14.544;2023-04-26T11:11:18;97963.06;;;21.16;28.55
56182;BME280;51963;46.052;14.544;2023-04-26T11:13:45;97967.22;;;20.65;29.13
56182;BME280;51963;46.052;14.544;2023-04-26T11:16:11;97954.34;;;23.39;26.53
56182;BME280;51963;46.052;14.544;2023-04-26T11:18:40;97918.91;;;25.30;25.99
56182;BME280;51963;46.052;14.544;2023-04-26T11:21:07;97943.97;;;22.77;26.21
56182;BME280;51963;46.052;14.544;2023-04-26T11:23:33;97956.63;;;21.17;28.46
56182;BME280;51963;46.052;14.544;2023-04-26T11:26:01;97959.91;;;19.92;29.68
56182;BME280;51963;46.052;14.544;2023-04-26T11:28:31;97948.34;;;20.45;28.23
56182;BME280;51963;46.052;14.544;2023-04-26T11:30:58;97946.22;;;20.52;28.72
56182;BME280;51963;46.052;14.544;2023-04-26T11:33:24;97953.50;;;20.51;28.63
56182;BME280;51963;46.052;14.544;2023-04-26T11:35:51;97950.72;;;21.20;27.87
56182;BME280;51963;46.052;14.544;2023-04-26T11:38:20;97947.38;;;19.70;29.81
56182;BME280;51963;46.052;14.544;2023-04-26T11:41:00;97948.69;;;19.30;30.69
56182;BME280;51963;46.052;14.544;2023-04-26T11:43:39;97936.75;;;21.34;30.28
56182;BME280;51963;46.052;14.544;2023-04-26T11:46:06;97935.47;;;23.39;26.81
56182;BME280;51963;46.052;14.544;2023-04-26T11:48:33;97936.97;;;25.82;24.15
56182;BME280;51963;46.052;14.544;2023-04-26T11:51:02;97945.44;;;26.36;24.44
56182;BME280;51963;46.052;14.544;2023-04-26T11:53:43;97925.66;;;27.46;22.32
56182;BME280;51963;46.052;14.544;2023-04-26T11:56:14;97923.56;;;27.43;23.42
56182;BME280;51963;46.052;14.544;2023-04-26T11:58:48;97940.34;;;27.22;24.13
56182;BME280;51963;46.052;14.544;2023-04-26T12:01:22;97941.56;;;25.81;25.02
56182;BME280;51963;46.052;14.544;2023-04-26T12:03:52;97936.63;;;26.16;23.14
56182;BME280;51963;46.052;14.544;2023-04-26T12:06:18;97932.81;;;25.56;22.92
56182;BME280;51963;46.052;14.544;2023-04-26T12:08:49;97928.78;;;26.43;25.77
56182;BME280;51963;46.052;14.544;2023-04-26T12:11:16;97928.31;;;26.77;22.78
56182;BME280;51963;46.052;14.544;2023-04-26T12:13:42;97923.31;;;25.73;22.94
56182;BME280;51963;46.052;14.544;2023-04-26T12:16:08;97920.38;;;27.18;23.57
56182;BME280;51963;46.052;14.544;2023-04-26T12:18:34;97909.69;;;27.21;22.17
56182;BME280;51963;46.052;14.544;2023-04-26T12:21:00;97909.53;;;27.72;21.14
56182;BME280;51963;46.052;14.544;2023-04-26T12:23:26;97907.47;;;27.01;20.90
56182;BME280;51963;46.052;14.544;2023-04-26T12:25:56;97909.50;;;27.63;20.25
56182;BME280;51963;46.052;14.544;2023-04-26T12:28:26;97910.91;;;29.56;18.40
56182;BME280;51963;46.052;14.544;2023-04-26T12:30:52;97911.09;;;28.63;19.25
56182;BME280;51963;46.052;14.544;2023-04-26T12:33:17;97913.06;;;28.89;18.79
56182;BME280;51963;46.052;14.544;2023-04-26T12:35:48;97904.03;;;30.27;19.75
56182;BME280;51963;46.052;14.544;2023-04-26T12:38:14;97906.81;;;29.23;19.26
56182;BME280;51963;46.052;14.544;2023-04-26T12:40:42;97904.84;;;31.34;16.89
56182;BME280;51963;46.052;14.544;2023-04-26T12:43:08;97907.25;;;26.74;20.45
56182;BME280;51963;46.052;14.544;2023-04-26T12:45:34;97896.09;;;28.92;18.14
56182;BME280;51963;46.052;14.544;2023-04-26T12:47:59;97866.09;;;29.36;18.61
56182;BME280;51963;46.052;14.544;2023-04-26T12:50:26;97888.16;;;30.81;18.43
56182;BME280;51963;46.052;14.544;2023-04-26T12:52:52;97886.81;;;27.59;19.65
56182;BME280;51963;46.052;14.544;2023-04-26T12:55:21;97888.22;;;25.01;22.89
56182;BME280;51963;46.052;14.544;2023-04-26T12:57:47;97888.13;;;25.73;22.75
56182;BME280;51963;46.052;14.544;2023-04-26T13:00:14;97888.00;;;23.38;24.97
56182;BME280;51963;46.052;14.544;2023-04-26T13:02:41;97889.69;;;22.49;25.12
56182;BME280;51963;46.052;14.544;2023-04-26T13:05:08;97887.66;;;24.04;23.56
56182;BME280;51963;46.052;14.544;2023-04-26T13:07:36;97895.50;;;23.70;23.39
56182;BME280;51963;46.052;14.544;2023-04-26T13:10:03;97883.31;;;22.24;24.80
56182;BME280;51963;46.052;14.544;2023-04-26T13:12:29;97888.88;;;21.72;25.52
56182;BME280;51963;46.052;14.544;2023-04-26T13:14:56;97896.41;;;21.08;27.24
56182;BME280;51963;46.052;14.544;2023-04-26T13:17:23;97891.75;;;20.57;29.00
56182;BME280;51963;46.052;14.544;2023-04-26T13:19:50;97891.00;;;20.87;28.22